Time;durP1;ratioP1;P1;durP2;ratioP2;P2;SDS_P1;SDS_P2;PMS_P1;PMS_P2;Temp;Humidity;BMP_temperature;BMP_pressure;BME280_temperature;BME280_humidity;BME280_pressure;Samples;Min_cycle;Max_cycle;Signal;HPM_P1;HPM_P2
2023/06/09 00:01:09;;;;;;;;;;;26.90;44.70;;;;;;5064586;28;19971;-54
2023/06/09 00:03:37;;;;;;;;;;;26.80;44.70;;;;;;5102597;28;20273;-53
2023/06/09 00:06:02;;;;;;;;;;;26.80;44.30;;;;;;5052870;28;20242;-53
2023/06/09 00:08:29;;;;;;;;;;;26.80;44.40;;;;;;5052333;28;19943;-53
2023/06/09 00:10:54;;;;;;;;;;;26.80;44.40;;;;;;5052229;28;19909;-53
2023/06/09 00:13:20;;;;;;;;;;;26.70;44.30;;;;;;5063656;28;19916;-53
2023/06/09 00:15:46;;;;;;;;;;;26.80;44.50;;;;;;5071343;28;20281;-54
2023/06/09 00:18:15;;;;;;;;;;;26.80;45.20;;;;;;5067892;28;19913;-54
2023/06/09 00:20:42;;;;;;;;;;;26.70;44.80;;;;;;5064421;28;19915;-53
2023/06/09 00:23:08;;;;;;;;;;;26.70;44.50;;;;;;5072289;28;20284;-53
2023/06/09 00:25:33;;;;;;;;;;;26.70;44.30;;;;;;5070410;28;19920;-53
2023/06/09 00:27:59;;;;;;;;;;;26.70;44.20;;;;;;5052473;28;19916;-53
2023/06/09 00:30:24;;;;;;;;;;;26.70;44.40;;;;;;5054634;28;19924;-54
2023/06/09 00:32:49;;;;;;;;;;;26.70;44.50;;;;;;5066505;28;19916;-53
2023/06/09 00:35:15;;;;;;;;;;;26.70;44.30;;;;;;5067786;28;19920;-53
2023/06/09 00:37:40;;;;;;;;;;;26.70;45.20;;;;;;5066575;28;19916;-53
2023/06/09 00:40:07;;;;;;;;;;;26.60;44.70;;;;;;5051167;28;20391;-53
2023/06/09 00:42:33;;;;;;;;;;;26.60;44.40;;;;;;5051356;28;19921;-53
2023/06/09 00:44:58;;;;;;;;;;;26.70;44.40;;;;;;5063996;28;20020;-53
2023/06/09 00:47:24;;;;;;;;;;;26.60;44.20;;;;;;5063892;28;20019;-52
2023/06/09 00:49:50;;;;;;;;;;;26.60;44.30;;;;;;5089066;28;20496;-53
2023/06/09 00:52:15;;;;;;;;;;;26.60;44.30;;;;;;5062138;28;19927;-53
2023/06/09 00:54:40;;;;;;;;;;;26.60;44.30;;;;;;5069608;28;20339;-53
2023/06/09 00:57:07;;;;;;;;;;;26.60;44.30;;;;;;5051838;28;19913;-54
2023/06/09 00:59:35;;;;;;;;;;;26.60;44.30;;;;;;5050857;28;19916;-53
2023/06/09 01:02:03;;;;;;;;;;;26.60;44.50;;;;;;5057297;28;20030;-52
2023/06/09 01:04:29;;;;;;;;;;;26.60;44.30;;;;;;5069104;28;19920;-53
2023/06/09 01:07:17;;;;;;;;;;;26.60;44.40;;;;;;5062798;28;19913;-53
2023/06/09 01:09:45;;;;;;;;;;;26.60;44.40;;;;;;5061689;28;20392;-53
2023/06/09 01:12:17;;;;;;;;;;;26.60;44.30;;;;;;5103537;28;19916;-53
2023/06/09 01:14:46;;;;;;;;;;;26.60;44.40;;;;;;5103166;28;19912;-53
2023/06/09 01:17:13;;;;;;;;;;;26.60;44.40;;;;;;5071362;28;20376;-53
2023/06/09 01:19:41;;;;;;;;;;;26.60;44.30;;;;;;5107168;28;20007;-53
2023/06/09 01:22:08;;;;;;;;;;;26.60;44.50;;;;;;5072764;28;19995;-53
2023/06/09 01:24:46;;;;;;;;;;;26.60;44.50;;;;;;5097804;28;20376;-53
2023/06/09 01:27:11;;;;;;;;;;;26.60;44.30;;;;;;5112891;28;19912;-53
2023/06/09 01:29:40;;;;;;;;;;;26.60;44.40;;;;;;5095129;28;20372;-53
2023/06/09 01:32:06;;;;;;;;;;;26.60;44.50;;;;;;5075486;28;20372;-53
2023/06/09 01:34:31;;;;;;;;;;;26.50;44.30;;;;;;5075076;28;19908;-53
2023/06/09 01:36:57;;;;;;;;;;;26.50;44.30;;;;;;5067459;28;19920;-53
2023/06/09 01:39:23;;;;;;;;;;;26.50;44.40;;;;;;5054444;28;20323;-53
2023/06/09 01:41:48;;;;;;;;;;;26.50;44.40;;;;;;5087588;28;19913;-53
2023/06/09 01:44:14;;;;;;;;;;;26.50;44.40;;;;;;5055214;28;19947;-53
2023/06/09 01:46:40;;;;;;;;;;;26.50;44.30;;;;;;5053736;28;19984;-53
2023/06/09 01:49:18;;;;;;;;;;;26.50;44.60;;;;;;5055166;28;19913;-53
2023/06/09 01:51:46;;;;;;;;;;;26.50;44.40;;;;;;5054717;28;19924;-53
2023/06/09 01:54:16;;;;;;;;;;;26.50;44.60;;;;;;5053842;28;19936;-53
2023/06/09 01:56:45;;;;;;;;;;;26.50;44.30;;;;;;5068085;28;19931;-53
2023/06/09 01:59:14;;;;;;;;;;;26.50;44.50;;;;;;5106399;28;19947;-53
2023/06/09 02:01:39;;;;;;;;;;;26.50;44.40;;;;;;5090963;28;19947;-52
2023/06/09 02:04:05;;;;;;;;;;;26.50;44.60;;;;;;5068195;28;19917;-53
2023/06/09 02:06:32;;;;;;;;;;;26.50;44.70;;;;;;5054761;28;19916;-53
2023/06/09 02:08:58;;;;;;;;;;;26.40;44.20;;;;;;5068450;28;19925;-53
2023/06/09 02:11:23;;;;;;;;;;;26.40;44.60;;;;;;5106550;28;20049;-53
2023/06/09 02:13:55;;;;;;;;;;;26.40;44.60;;;;;;5074261;28;20320;-53
2023/06/09 02:16:21;;;;;;;;;;;26.40;44.40;;;;;;5074729;28;19939;-53
2023/06/09 02:18:48;;;;;;;;;;;26.40;44.60;;;;;;5098149;28;19917;-52
2023/06/09 02:21:14;;;;;;;;;;;26.40;44.60;;;;;;5062708;28;19917;-53
2023/06/09 02:23:40;;;;;;;;;;;26.40;44.40;;;;;;5057947;28;19935;-53
2023/06/09 02:26:08;;;;;;;;;;;26.40;44.60;;;;;;5063823;28;19962;-52
2023/06/09 02:28:33;;;;;;;;;;;26.40;44.40;;;;;;5060412;28;20407;-53
2023/06/09 02:30:59;;;;;;;;;;;26.40;44.50;;;;;;5054180;28;19912;-52
2023/06/09 02:33:25;;;;;;;;;;;26.40;44.30;;;;;;5058115;28;19917;-52
2023/06/09 02:35:51;;;;;;;;;;;26.40;44.20;;;;;;5064580;28;19920;-52
2023/06/09 02:38:16;;;;;;;;;;;26.40;44.60;;;;;;5072134;28;19913;-52
2023/06/09 02:40:42;;;;;;;;;;;26.40;44.50;;;;;;5072558;28;19912;-52
2023/06/09 02:43:08;;;;;;;;;;;26.40;44.50;;;;;;5073506;28;19965;-52
2023/06/09 02:45:33;;;;;;;;;;;26.30;44.50;;;;;;5071461;28;19917;-52
2023/06/09 02:47:59;;;;;;;;;;;26.30;44.40;;;;;;5068971;28;19916;-53
2023/06/09 02:50:24;;;;;;;;;;;26.40;44.50;;;;;;5072934;28;19914;-53
2023/06/09 02:52:50;;;;;;;;;;;26.30;44.50;;;;;;5064707;28;19913;-53
2023/06/09 02:55:18;;;;;;;;;;;26.30;44.40;;;;;;5066443;28;19917;-53
2023/06/09 02:57:44;;;;;;;;;;;26.30;44.40;;;;;;5056455;28;19935;-53
2023/06/09 03:00:09;;;;;;;;;;;26.30;44.40;;;;;;5053520;28;19917;-53
2023/06/09 03:02:36;;;;;;;;;;;26.30;44.50;;;;;;5061825;28;19916;-53
2023/06/09 03:05:02;;;;;;;;;;;26.30;44.40;;;;;;5102832;28;20449;-53
2023/06/09 03:07:28;;;;;;;;;;;26.30;44.40;;;;;;5057768;28;19971;-53
2023/06/09 03:09:53;;;;;;;;;;;26.30;44.40;;;;;;5052305;28;20273;-53
2023/06/09 03:12:18;;;;;;;;;;;26.20;44.10;;;;;;5067377;28;19938;-53
2023/06/09 03:14:44;;;;;;;;;;;26.20;44.40;;;;;;5072301;28;19912;-53
2023/06/09 03:17:10;;;;;;;;;;;26.20;44.30;;;;;;5056395;28;19920;-53
2023/06/09 03:19:35;;;;;;;;;;;26.20;44.30;;;;;;5059575;28;19927;-53
2023/06/09 03:22:03;;;;;;;;;;;26.30;44.30;;;;;;5053406;28;19909;-53
2023/06/09 03:24:29;;;;;;;;;;;26.20;44.40;;;;;;5067675;28;19916;-53
2023/06/09 03:26:55;;;;;;;;;;;26.20;44.30;;;;;;5062283;28;19908;-52
2023/06/09 03:29:21;;;;;;;;;;;26.20;44.30;;;;;;5073091;28;20391;-53
2023/06/09 03:31:46;;;;;;;;;;;26.20;44.30;;;;;;5073120;28;19908;-53
2023/06/09 03:34:11;;;;;;;;;;;26.20;44.40;;;;;;5088416;28;19913;-53
2023/06/09 03:36:37;;;;;;;;;;;26.20;44.20;;;;;;5053078;28;20336;-52
2023/06/09 03:39:02;;;;;;;;;;;26.20;44.30;;;;;;5054460;28;20258;-53
2023/06/09 03:41:28;;;;;;;;;;;26.20;44.30;;;;;;5051262;28;19951;-53
2023/06/09 03:43:54;;;;;;;;;;;26.20;44.40;;;;;;5052921;28;19932;-53
2023/06/09 03:46:19;;;;;;;;;;;26.20;44.30;;;;;;5052844;28;19920;-53
2023/06/09 03:48:45;;;;;;;;;;;26.20;44.30;;;;;;5066402;28;19958;-52
2023/06/09 03:51:10;;;;;;;;;;;26.20;44.30;;;;;;5052124;28;20381;-53
2023/06/09 03:53:36;;;;;;;;;;;26.20;44.40;;;;;;5052944;28;19916;-53
2023/06/09 03:56:01;;;;;;;;;;;26.20;44.20;;;;;;5052380;28;19999;-53
2023/06/09 03:58:27;;;;;;;;;;;26.20;44.30;;;;;;5052471;28;19936;-53
2023/06/09 04:00:52;;;;;;;;;;;26.20;44.40;;;;;;5057415;28;19913;-53
2023/06/09 04:03:18;;;;;;;;;;;26.20;44.40;;;;;;5094181;28;20455;-53
2023/06/09 04:05:44;;;;;;;;;;;26.20;44.40;;;;;;5059814;28;19923;-53
2023/06/09 04:08:10;;;;;;;;;;;26.20;44.30;;;;;;5068824;28;19920;-53
2023/06/09 04:10:35;;;;;;;;;;;26.10;44.40;;;;;;5071712;28;19917;-54
2023/06/09 04:13:01;;;;;;;;;;;26.10;44.30;;;;;;5060142;28;19913;-53
2023/06/09 04:15:26;;;;;;;;;;;26.10;44.20;;;;;;5052217;28;20379;-53
2023/06/09 04:17:52;;;;;;;;;;;26.10;44.20;;;;;;5055886;28;19912;-54
2023/06/09 04:20:21;;;;;;;;;;;26.10;44.40;;;;;;5064367;28;19909;-53
2023/06/09 04:22:47;;;;;;;;;;;26.10;44.30;;;;;;5052872;28;19992;-53
2023/06/09 04:25:13;;;;;;;;;;;26.10;44.20;;;;;;5069359;28;20365;-53
2023/06/09 04:27:39;;;;;;;;;;;26.10;44.20;;;;;;5066541;28;19962;-53
2023/06/09 04:30:05;;;;;;;;;;;26.10;44.20;;;;;;5055461;28;19917;-53
2023/06/09 04:32:33;;;;;;;;;;;26.10;44.40;;;;;;5063099;28;20044;-53
2023/06/09 04:34:59;;;;;;;;;;;26.10;44.30;;;;;;5054428;28;20244;-54
2023/06/09 04:37:25;;;;;;;;;;;26.10;44.30;;;;;;5052537;28;20357;-53
2023/06/09 04:39:50;;;;;;;;;;;26.10;44.30;;;;;;5084643;28;19924;-53
2023/06/09 04:42:19;;;;;;;;;;;26.10;44.30;;;;;;5067674;28;19916;-54
2023/06/09 04:44:47;;;;;;;;;;;26.10;44.30;;;;;;5072028;28;20001;-54
2023/06/09 04:47:17;;;;;;;;;;;26.10;44.30;;;;;;5070080;28;20410;-53
2023/06/09 04:49:43;;;;;;;;;;;26.10;44.40;;;;;;5052707;28;19952;-53
2023/06/09 04:52:10;;;;;;;;;;;26.10;44.30;;;;;;5058587;28;20300;-53
2023/06/09 04:54:36;;;;;;;;;;;26.10;45.00;;;;;;5110100;28;19917;-53
2023/06/09 04:57:03;;;;;;;;;;;26.10;44.40;;;;;;5074326;28;19912;-53
2023/06/09 04:59:31;;;;;;;;;;;26.10;44.30;;;;;;5072242;28;19909;-54
2023/06/09 05:01:57;;;;;;;;;;;26.10;44.40;;;;;;5095764;28;19999;-54
2023/06/09 05:04:23;;;;;;;;;;;26.10;44.30;;;;;;5077592;28;20027;-54
2023/06/09 05:06:48;;;;;;;;;;;26.00;44.40;;;;;;5077611;28;19963;-54
2023/06/09 05:09:14;;;;;;;;;;;26.10;44.40;;;;;;5077695;28;19920;-53
2023/06/09 05:11:39;;;;;;;;;;;26.10;44.50;;;;;;5077997;28;19912;-53
2023/06/09 05:14:05;;;;;;;;;;;26.10;44.50;;;;;;5076206;28;19916;-53
2023/06/09 05:16:30;;;;;;;;;;;26.10;44.40;;;;;;5077358;28;19912;-53
2023/06/09 05:18:56;;;;;;;;;;;26.10;44.40;;;;;;5068722;28;19919;-54
2023/06/09 05:21:24;;;;;;;;;;;26.10;44.40;;;;;;5076313;28;19912;-54
2023/06/09 05:23:50;;;;;;;;;;;26.00;44.40;;;;;;5075568;28;19912;-54
2023/06/09 05:26:16;;;;;;;;;;;26.10;44.40;;;;;;5077494;28;19999;-54
2023/06/09 05:28:42;;;;;;;;;;;26.00;44.30;;;;;;5062008;28;19917;-54
2023/06/09 05:31:08;;;;;;;;;;;26.10;44.50;;;;;;5076941;28;19909;-54
2023/06/09 05:33:33;;;;;;;;;;;26.10;44.40;;;;;;5076993;28;19916;-54
2023/06/09 05:35:59;;;;;;;;;;;26.10;44.50;;;;;;5078378;28;19958;-54
2023/06/09 05:38:25;;;;;;;;;;;26.10;44.40;;;;;;5065051;28;19919;-53
2023/06/09 05:40:51;;;;;;;;;;;26.10;44.40;;;;;;5059042;28;19912;-53
2023/06/09 05:43:17;;;;;;;;;;;26.10;44.40;;;;;;5078227;28;20269;-53
2023/06/09 05:45:43;;;;;;;;;;;26.10;44.40;;;;;;5077936;28;19913;-53
2023/06/09 05:48:08;;;;;;;;;;;26.10;44.30;;;;;;5110504;28;19913;-53
2023/06/09 05:50:33;;;;;;;;;;;26.10;44.40;;;;;;5078035;28;20002;-54
2023/06/09 05:52:59;;;;;;;;;;;26.10;44.40;;;;;;5078216;28;20438;-53
2023/06/09 05:55:25;;;;;;;;;;;26.10;44.30;;;;;;5073138;28;20308;-53
2023/06/09 05:57:51;;;;;;;;;;;26.10;44.30;;;;;;5060667;28;20051;-53
2023/06/09 06:00:17;;;;;;;;;;;26.10;44.40;;;;;;5073971;28;19999;-53
2023/06/09 06:02:44;;;;;;;;;;;26.10;44.40;;;;;;5067667;28;19959;-53
2023/06/09 06:05:10;;;;;;;;;;;26.10;44.30;;;;;;5067455;28;20011;-53
2023/06/09 06:07:36;;;;;;;;;;;26.00;44.20;;;;;;5059607;28;19978;-53
2023/06/09 06:10:05;;;;;;;;;;;26.10;44.20;;;;;;5096908;28;20380;-54
2023/06/09 06:12:30;;;;;;;;;;;26.00;44.30;;;;;;5058079;28;20383;-54
2023/06/09 06:14:56;;;;;;;;;;;26.10;44.20;;;;;;5057137;28;19917;-53
2023/06/09 06:17:21;;;;;;;;;;;26.10;44.30;;;;;;5060468;28;19913;-54
2023/06/09 06:19:47;;;;;;;;;;;26.00;44.10;;;;;;5053979;28;19916;-53
2023/06/09 06:22:12;;;;;;;;;;;26.00;44.20;;;;;;5072352;28;19920;-54
2023/06/09 06:24:38;;;;;;;;;;;26.00;44.10;;;;;;5053641;28;20444;-54
2023/06/09 06:27:03;;;;;;;;;;;26.10;44.20;;;;;;5054305;28;20309;-55
2023/06/09 06:29:30;;;;;;;;;;;26.10;44.10;;;;;;5055389;28;20398;-54
2023/06/09 06:31:56;;;;;;;;;;;26.10;44.10;;;;;;5071075;28;19916;-55
2023/06/09 06:34:21;;;;;;;;;;;26.10;44.10;;;;;;5054087;28;20062;-55
2023/06/09 06:36:47;;;;;;;;;;;26.00;44.00;;;;;;5064223;28;19947;-54
2023/06/09 06:39:13;;;;;;;;;;;26.10;44.10;;;;;;5068360;28;20391;-54
2023/06/09 06:41:38;;;;;;;;;;;26.10;44.10;;;;;;5053385;28;19909;-54
2023/06/09 06:44:04;;;;;;;;;;;26.10;43.90;;;;;;5053471;28;19925;-55
2023/06/09 06:46:31;;;;;;;;;;;26.10;44.00;;;;;;5068271;28;20022;-55
2023/06/09 06:48:57;;;;;;;;;;;26.10;44.00;;;;;;5058555;28;19916;-55
2023/06/09 06:51:22;;;;;;;;;;;26.10;43.90;;;;;;5072979;28;20050;-53
2023/06/09 06:53:48;;;;;;;;;;;26.10;43.70;;;;;;5055927;28;19917;-54
2023/06/09 06:56:13;;;;;;;;;;;26.10;43.70;;;;;;5052975;28;20348;-54
2023/06/09 06:58:38;;;;;;;;;;;26.00;43.50;;;;;;5064562;28;19916;-54
2023/06/09 07:01:04;;;;;;;;;;;26.10;43.80;;;;;;5072372;28;19920;-54
2023/06/09 07:03:29;;;;;;;;;;;26.10;43.80;;;;;;5062070;28;19948;-54
2023/06/09 07:05:55;;;;;;;;;;;26.10;43.70;;;;;;5105188;28;19921;-54
2023/06/09 07:08:20;;;;;;;;;;;26.10;43.50;;;;;;5066698;28;20018;-53
2023/06/09 07:10:46;;;;;;;;;;;26.10;43.50;;;;;;5053288;28;20349;-53
2023/06/09 07:13:11;;;;;;;;;;;26.10;43.60;;;;;;5053076;28;19913;-54
2023/06/09 07:15:38;;;;;;;;;;;26.10;43.70;;;;;;5099254;28;19938;-54
2023/06/09 07:18:06;;;;;;;;;;;26.10;43.50;;;;;;5065950;28;19948;-54
2023/06/09 07:20:32;;;;;;;;;;;26.10;43.70;;;;;;5071772;28;19998;-54
2023/06/09 07:22:58;;;;;;;;;;;26.10;43.50;;;;;;5061112;28;20000;-54
2023/06/09 07:25:23;;;;;;;;;;;26.10;43.70;;;;;;5059249;28;19913;-54
2023/06/09 07:27:49;;;;;;;;;;;26.20;43.70;;;;;;5073296;28;20003;-54
2023/06/09 07:30:14;;;;;;;;;;;26.10;43.70;;;;;;5072964;28;20320;-54
2023/06/09 07:32:40;;;;;;;;;;;26.10;43.70;;;;;;5073216;28;19951;-54
2023/06/09 07:35:05;;;;;;;;;;;26.10;43.60;;;;;;5071477;28;19921;-55
2023/06/09 07:37:31;;;;;;;;;;;26.10;43.60;;;;;;5058724;28;19908;-54
2023/06/09 07:39:57;;;;;;;;;;;26.20;43.60;;;;;;5059331;28;19919;-54
2023/06/09 07:42:22;;;;;;;;;;;26.10;43.60;;;;;;5071668;28;19908;-54
2023/06/09 07:44:47;;;;;;;;;;;26.10;43.70;;;;;;5072701;28;19913;-54
2023/06/09 07:47:13;;;;;;;;;;;26.10;44.50;;;;;;5072855;28;20293;-55
2023/06/09 07:49:38;;;;;;;;;;;26.20;43.70;;;;;;5061551;28;19921;-54
2023/06/09 07:52:04;;;;;;;;;;;26.10;44.30;;;;;;5052577;28;20015;-54
2023/06/09 07:54:30;;;;;;;;;;;26.20;44.00;;;;;;5060169;28;20280;-54
2023/06/09 07:56:55;;;;;;;;;;;26.20;44.50;;;;;;5067310;28;19936;-54
2023/06/09 07:59:21;;;;;;;;;;;26.20;44.00;;;;;;5053366;28;19955;-54
2023/06/09 08:01:46;;;;;;;;;;;26.20;44.40;;;;;;5055427;28;19920;-54
2023/06/09 08:04:12;;;;;;;;;;;26.20;44.00;;;;;;5071734;28;20261;-53
2023/06/09 08:06:37;;;;;;;;;;;26.20;44.90;;;;;;5104907;28;20315;-53
2023/06/09 08:09:03;;;;;;;;;;;26.20;44.60;;;;;;5071255;28;20281;-53
2023/06/09 08:11:28;;;;;;;;;;;26.20;44.50;;;;;;5061945;28;19916;-53
2023/06/09 08:13:54;;;;;;;;;;;26.20;44.70;;;;;;5065807;28;19917;-53
2023/06/09 08:16:19;;;;;;;;;;;26.20;44.40;;;;;;5064634;28;19912;-53
2023/06/09 08:18:45;;;;;;;;;;;26.20;44.30;;;;;;5088879;28;19912;-53
2023/06/09 08:21:11;;;;;;;;;;;26.20;44.40;;;;;;5067381;28;20531;-52
2023/06/09 08:23:37;;;;;;;;;;;26.20;44.60;;;;;;5072319;28;19909;-53
2023/06/09 08:26:02;;;;;;;;;;;26.20;44.90;;;;;;5065249;28;20407;-55
2023/06/09 08:28:28;;;;;;;;;;;26.20;44.40;;;;;;5053881;28;19962;-53
2023/06/09 08:30:53;;;;;;;;;;;26.20;44.30;;;;;;5061871;28;19915;-55
2023/06/09 08:33:19;;;;;;;;;;;26.20;44.80;;;;;;5047793;28;19917;-55
2023/06/09 08:35:44;;;;;;;;;;;26.30;44.50;;;;;;5084104;28;19964;-56
2023/06/09 08:38:10;;;;;;;;;;;26.30;44.70;;;;;;5055129;28;19913;-56
2023/06/09 08:40:35;;;;;;;;;;;26.30;44.30;;;;;;5062117;28;19959;-55
2023/06/09 08:43:01;;;;;;;;;;;26.30;44.60;;;;;;5068276;28;19920;-55
2023/06/09 08:45:27;;;;;;;;;;;26.30;44.40;;;;;;5093191;28;20457;-55
2023/06/09 08:47:52;;;;;;;;;;;26.40;44.80;;;;;;5055775;28;19912;-55
2023/06/09 08:50:18;;;;;;;;;;;26.50;44.30;;;;;;5050139;28;19912;-55
2023/06/09 08:52:44;;;;;;;;;;;26.50;43.50;;;;;;5055775;28;19940;-55
2023/06/09 08:55:11;;;;;;;;;;;26.50;44.80;;;;;;5064262;28;20282;-56
2023/06/09 08:57:37;;;;;;;;;;;26.50;44.10;;;;;;5070561;28;19912;-55
2023/06/09 09:00:05;;;;;;;;;;;26.50;44.30;;;;;;5056355;28;19913;-55
2023/06/09 09:02:31;;;;;;;;;;;26.50;43.80;;;;;;5066130;28;19912;-56
2023/06/09 09:05:00;;;;;;;;;;;26.50;44.00;;;;;;5067565;28;19927;-56
2023/06/09 09:07:26;;;;;;;;;;;26.60;43.80;;;;;;5099460;28;19912;-55
2023/06/09 09:09:51;;;;;;;;;;;26.50;43.90;;;;;;5059192;28;20348;-55
2023/06/09 09:12:16;;;;;;;;;;;26.60;44.10;;;;;;5059213;28;19912;-56
2023/06/09 09:14:42;;;;;;;;;;;26.60;43.40;;;;;;5069228;28;19950;-55
2023/06/09 09:17:09;;;;;;;;;;;26.60;44.10;;;;;;5067574;28;20372;-56
2023/06/09 09:19:35;;;;;;;;;;;26.60;43.30;;;;;;5068283;28;19939;-55
2023/06/09 09:22:07;;;;;;;;;;;26.70;43.30;;;;;;5083408;28;20063;-55
2023/06/09 09:24:33;;;;;;;;;;;26.70;43.30;;;;;;5054534;28;20338;-55
2023/06/09 09:26:58;;;;;;;;;;;26.70;43.30;;;;;;5064146;28;19996;-55
2023/06/09 09:29:27;;;;;;;;;;;26.70;43.30;;;;;;5071423;28;20003;-55
2023/06/09 09:31:57;;;;;;;;;;;26.80;43.40;;;;;;5049280;28;20008;-56
2023/06/09 09:34:24;;;;;;;;;;;26.80;42.80;;;;;;5052349;28;19923;-56
2023/06/09 09:36:52;;;;;;;;;;;26.80;43.90;;;;;;5053669;28;19917;-56
2023/06/09 09:39:18;;;;;;;;;;;26.80;43.50;;;;;;5087101;28;19952;-54
2023/06/09 09:42:03;;;;;;;;;;;26.90;42.70;;;;;;5056514;28;19971;-55
2023/06/09 09:44:38;;;;;;;;;;;26.90;43.10;;;;;;5054679;28;20270;-55
2023/06/09 09:47:04;;;;;;;;;;;26.90;42.90;;;;;;5055206;28;20327;-56
2023/06/09 09:49:29;;;;;;;;;;;26.90;43.10;;;;;;5054414;28;19924;-56
2023/06/09 09:51:58;;;;;;;;;;;26.90;43.40;;;;;;5055343;28;19959;-56
2023/06/09 09:54:26;;;;;;;;;;;26.90;42.10;;;;;;5054402;28;19971;-56
2023/06/09 09:56:51;;;;;;;;;;;27.00;42.50;;;;;;5069719;28;19916;-55
2023/06/09 09:59:17;;;;;;;;;;;27.00;42.50;;;;;;5090841;28;19911;-56
2023/06/09 10:01:42;;;;;;;;;;;27.00;41.80;;;;;;5100160;28;19917;-56
2023/06/09 10:04:07;;;;;;;;;;;27.10;41.90;;;;;;5068285;28;20007;-56
2023/06/09 10:06:33;;;;;;;;;;;27.10;42.00;;;;;;5069418;28;19919;-55
2023/06/09 10:08:58;;;;;;;;;;;27.20;41.70;;;;;;5040106;28;19920;-55
2023/06/09 10:11:27;;;;;;;;;;;27.10;41.70;;;;;;5085924;28;19912;-55
2023/06/09 10:13:53;;;;;;;;;;;27.20;42.20;;;;;;5054506;28;20370;-55
2023/06/09 10:16:18;;;;;;;;;;;27.20;42.50;;;;;;5067469;28;19913;-55
2023/06/09 10:18:44;;;;;;;;;;;27.20;41.70;;;;;;5070345;28;20368;-55
2023/06/09 10:21:10;;;;;;;;;;;27.20;41.90;;;;;;5064877;28;19919;-56
2023/06/09 10:23:36;;;;;;;;;;;27.30;41.50;;;;;;5053541;28;19931;-55
2023/06/09 10:26:01;;;;;;;;;;;27.30;41.70;;;;;;5085954;28;19935;-55
2023/06/09 10:28:27;;;;;;;;;;;27.30;41.60;;;;;;5058033;28;19924;-56
2023/06/09 10:30:52;;;;;;;;;;;27.30;41.70;;;;;;5061224;28;19913;-56
2023/06/09 10:33:23;;;;;;;;;;;27.30;41.60;;;;;;5070128;28;19966;-56
2023/06/09 10:35:49;;;;;;;;;;;27.30;42.00;;;;;;5072737;28;19966;-57
2023/06/09 10:38:31;;;;;;;;;;;27.30;41.90;;;;;;5056907;28;19920;-56
2023/06/09 10:41:05;;;;;;;;;;;27.30;41.70;;;;;;5073871;28;19912;-56
2023/06/09 10:43:40;;;;;;;;;;;27.40;42.40;;;;;;5101323;28;19917;-56
2023/06/09 10:46:05;;;;;;;;;;;27.30;41.90;;;;;;5053135;28;19919;-56
2023/06/09 10:48:41;;;;;;;;;;;27.30;41.20;;;;;;5057490;28;19916;-56
2023/06/09 10:51:26;;;;;;;;;;;27.40;40.50;;;;;;5069933;28;20015;-56
2023/06/09 10:54:12;;;;;;;;;;;27.50;40.90;;;;;;5056385;28;20363;-56
2023/06/09 10:56:46;;;;;;;;;;;27.50;39.90;;;;;;5073039;28;19908;-56
2023/06/09 10:59:38;;;;;;;;;;;27.50;40.30;;;;;;5066923;28;20871;-56
2023/06/09 11:02:04;;;;;;;;;;;27.60;40.60;;;;;;5045390;28;19947;-55
2023/06/09 11:04:43;;;;;;;;;;;27.50;40.30;;;;;;5068638;28;19916;-55
2023/06/09 11:07:09;;;;;;;;;;;27.60;40.20;;;;;;5061360;28;20377;-55
2023/06/09 11:09:35;;;;;;;;;;;27.60;40.00;;;;;;5052476;28;19921;-55
2023/06/09 11:12:00;;;;;;;;;;;27.70;40.10;;;;;;5053276;28;19912;-56
2023/06/09 11:14:51;;;;;;;;;;;27.70;40.60;;;;;;5061585;28;20007;-56
2023/06/09 11:17:17;;;;;;;;;;;27.70;40.10;;;;;;5058457;28;19966;-56
2023/06/09 11:19:43;;;;;;;;;;;27.60;40.40;;;;;;5065146;28;20361;-55
2023/06/09 11:22:09;;;;;;;;;;;27.70;40.30;;;;;;5067661;28;19917;-55
2023/06/09 11:24:47;;;;;;;;;;;27.70;40.10;;;;;;5052098;28;19982;-56
2023/06/09 11:27:18;;;;;;;;;;;27.70;39.80;;;;;;5070533;28;19919;-56
2023/06/09 11:29:44;;;;;;;;;;;27.70;39.30;;;;;;5055547;28;20322;-56
2023/06/09 11:32:12;;;;;;;;;;;27.70;39.70;;;;;;5065413;28;19908;-56
2023/06/09 11:34:47;;;;;;;;;;;27.70;39.70;;;;;;5066201;28;19913;-55
2023/06/09 11:37:15;;;;;;;;;;;27.70;40.30;;;;;;5053246;28;19940;-55
2023/06/09 11:39:40;;;;;;;;;;;27.70;39.80;;;;;;5067492;28;19912;-54
2023/06/09 11:42:06;;;;;;;;;;;27.80;38.90;;;;;;5058381;28;19920;-55
2023/06/09 11:44:38;;;;;;;;;;;27.80;39.90;;;;;;5071786;28;20057;-55
2023/06/09 11:47:25;;;;;;;;;;;27.80;39.20;;;;;;5073125;28;19951;-56
2023/06/09 11:49:58;;;;;;;;;;;27.90;38.80;;;;;;5072263;28;19916;-56
2023/06/09 11:52:23;;;;;;;;;;;27.90;39.40;;;;;;5067871;28;19913;-56
2023/06/09 11:54:48;;;;;;;;;;;27.90;38.60;;;;;;5052250;28;20290;-56
2023/06/09 11:57:15;;;;;;;;;;;28.00;38.30;;;;;;5068272;28;19912;-56
2023/06/09 11:59:41;;;;;;;;;;;28.00;38.10;;;;;;5066845;28;20328;-55
2023/06/09 12:02:07;;;;;;;;;;;28.10;39.10;;;;;;5057269;28;19916;-55
2023/06/09 12:04:33;;;;;;;;;;;28.10;38.50;;;;;;5056160;28;19939;-55
2023/06/09 12:06:58;;;;;;;;;;;28.10;39.00;;;;;;5052569;28;19924;-56
2023/06/09 12:09:24;;;;;;;;;;;28.10;38.70;;;;;;5049643;28;19921;-55
2023/06/09 12:11:50;;;;;;;;;;;28.10;38.80;;;;;;5054580;28;19916;-55
2023/06/09 12:14:15;;;;;;;;;;;28.10;38.20;;;;;;5058630;28;19912;-55
2023/06/09 12:16:41;;;;;;;;;;;28.10;38.70;;;;;;5052360;28;19955;-55
2023/06/09 12:19:06;;;;;;;;;;;28.10;38.70;;;;;;5092909;28;20017;-55
2023/06/09 12:21:35;;;;;;;;;;;28.10;39.30;;;;;;5070809;28;19960;-55
2023/06/09 12:24:00;;;;;;;;;;;28.10;38.40;;;;;;5063158;28;19909;-55
2023/06/09 12:26:26;;;;;;;;;;;28.20;38.40;;;;;;5071538;28;19912;-55
2023/06/09 12:28:54;;;;;;;;;;;28.20;38.40;;;;;;5054505;28;19917;-54
2023/06/09 12:31:20;;;;;;;;;;;28.20;38.70;;;;;;5055611;28;19956;-55
2023/06/09 12:33:46;;;;;;;;;;;28.30;37.40;;;;;;5062472;28;19971;-55
2023/06/09 12:36:11;;;;;;;;;;;28.30;37.40;;;;;;5052083;28;19920;-55
2023/06/09 12:38:37;;;;;;;;;;;28.30;38.50;;;;;;5054988;28;20385;-55
2023/06/09 12:41:04;;;;;;;;;;;28.30;37.30;;;;;;5055876;28;20281;-55
2023/06/09 12:43:42;;;;;;;;;;;28.30;38.50;;;;;;5066887;28;19974;-55
2023/06/09 12:46:07;;;;;;;;;;;28.30;39.10;;;;;;5058870;28;20047;-54
2023/06/09 12:48:32;;;;;;;;;;;28.30;37.60;;;;;;5056233;28;19941;-57
2023/06/09 12:50:58;;;;;;;;;;;28.30;38.10;;;;;;5049633;28;20372;-56
2023/06/09 12:53:24;;;;;;;;;;;28.40;37.60;;;;;;5069942;28;19917;-56
2023/06/09 12:55:49;;;;;;;;;;;28.40;36.70;;;;;;5103569;28;19920;-56
2023/06/09 12:58:15;;;;;;;;;;;28.40;38.20;;;;;;5057565;28;20288;-55
2023/06/09 13:00:40;;;;;;;;;;;28.40;37.10;;;;;;5051840;28;19927;-55
2023/06/09 13:03:09;;;;;;;;;;;28.50;37.20;;;;;;5051061;28;19912;-56
2023/06/09 13:05:35;;;;;;;;;;;28.40;37.00;;;;;;5083013;28;19913;-56
2023/06/09 13:08:01;;;;;;;;;;;28.40;36.80;;;;;;5051822;28;20292;-56
2023/06/09 13:10:26;;;;;;;;;;;28.30;36.90;;;;;;5061492;28;19955;-55
2023/06/09 13:12:52;;;;;;;;;;;28.40;36.50;;;;;;5074289;28;19916;-56
2023/06/09 13:15:21;;;;;;;;;;;28.40;35.80;;;;;;5074150;28;19919;-55
2023/06/09 13:17:47;;;;;;;;;;;28.40;35.70;;;;;;5061903;28;19913;-55
2023/06/09 13:20:12;;;;;;;;;;;28.40;36.10;;;;;;5067583;28;19920;-56
2023/06/09 13:22:38;;;;;;;;;;;28.40;36.30;;;;;;5090297;28;19943;-56
2023/06/09 13:25:04;;;;;;;;;;;28.40;36.10;;;;;;5067533;28;19963;-55
2023/06/09 13:27:29;;;;;;;;;;;28.40;36.10;;;;;;5060092;28;20296;-56
2023/06/09 13:29:54;;;;;;;;;;;28.40;37.30;;;;;;5070929;28;20037;-56
2023/06/09 13:32:20;;;;;;;;;;;28.50;36.10;;;;;;5075443;28;19909;-55
2023/06/09 13:34:46;;;;;;;;;;;28.40;36.50;;;;;;5059085;28;20335;-56
2023/06/09 13:37:11;;;;;;;;;;;28.50;37.50;;;;;;5063145;28;19991;-56
2023/06/09 13:39:37;;;;;;;;;;;28.50;36.10;;;;;;5074582;28;19939;-55
2023/06/09 13:42:02;;;;;;;;;;;28.50;35.50;;;;;;5060957;28;19962;-55
2023/06/09 13:44:28;;;;;;;;;;;28.50;36.30;;;;;;5053468;28;19924;-56
2023/06/09 13:46:53;;;;;;;;;;;28.60;35.70;;;;;;5055269;28;19995;-55
2023/06/09 13:49:18;;;;;;;;;;;28.60;35.30;;;;;;5054782;28;19921;-56
2023/06/09 13:51:44;;;;;;;;;;;28.60;35.50;;;;;;5055856;28;19915;-56
2023/06/09 13:54:09;;;;;;;;;;;28.60;35.50;;;;;;5055065;28;19908;-56
2023/06/09 13:56:36;;;;;;;;;;;28.60;34.90;;;;;;5057394;28;20003;-56
2023/06/09 13:59:01;;;;;;;;;;;28.70;34.70;;;;;;5066472;28;19912;-55
2023/06/09 14:01:27;;;;;;;;;;;28.70;35.30;;;;;;5058971;28;19959;-55
2023/06/09 14:03:52;;;;;;;;;;;28.80;35.00;;;;;;5065415;28;19916;-56
2023/06/09 14:06:18;;;;;;;;;;;28.70;35.40;;;;;;5069495;28;19955;-55
2023/06/09 14:08:43;;;;;;;;;;;28.70;34.80;;;;;;5056872;28;19921;-55
2023/06/09 14:11:09;;;;;;;;;;;28.70;35.50;;;;;;5055121;28;20420;-56
2023/06/09 14:13:34;;;;;;;;;;;28.70;34.70;;;;;;5063443;28;20291;-56